Time;durP1;ratioP1;P1;durP2;ratioP2;P2;SDS_P1;SDS_P2;PMS_P1;PMS_P2;Temp;Humidity;BMP_temperature;BMP_pressure;BME280_temperature;BME280_humidity;BME280_pressure;Samples;Min_cycle;Max_cycle;Signal;HPM_P1;HPM_P2
2022/08/24 00:01:17;;;;;;;4.30;3.23;;;;;;;23.37;43.92;97571.88;5051830;28;20932;-69
2022/08/24 00:03:45;;;;;;;6.53;3.50;;;;;;;23.39;43.94;97575.97;5053359;28;20464;-69
2022/08/24 00:06:14;;;;;;;4.03;3.60;;;;;;;23.27;44.33;97570.53;5043589;28;20203;-68
2022/08/24 00:08:40;;;;;;;5.13;3.60;;;;;;;23.17;44.51;97573.75;5052593;28;20433;-68
2022/08/24 00:11:06;;;;;;;5.33;3.90;;;;;;;23.08;45.01;97577.75;5052957;28;20430;-69
2022/08/24 00:13:32;;;;;;;5.20;3.73;;;;;;;23.14;44.67;97568.84;5044190;28;20871;-69
2022/08/24 00:15:58;;;;;;;5.60;3.80;;;;;;;23.13;44.56;97571.72;5052716;28;20441;-70
2022/08/24 00:18:23;;;;;;;8.23;3.90;;;;;;;23.13;44.73;97572.53;5050926;28;21913;-70
2022/08/24 00:20:49;;;;;;;5.83;3.90;;;;;;;23.12;44.81;97570.91;5053020;28;20225;-68
2022/08/24 00:23:14;;;;;;;4.13;3.60;;;;;;;23.08;44.70;97572.38;5051598;28;20203;-69
2022/08/24 00:25:40;;;;;;;5.90;3.77;;;;;;;23.06;44.79;97571.78;5052865;28;20582;-69
2022/08/24 00:28:06;;;;;;;5.00;3.50;;;;;;;23.05;44.89;97570.19;5051875;28;20195;-68
2022/08/24 00:30:32;;;;;;;4.60;3.50;;;;;;;23.04;44.70;97563.22;5052741;28;20191;-69
2022/08/24 00:32:58;;;;;;;4.73;3.40;;;;;;;22.99;44.85;97565.72;5051471;28;20201;-69
2022/08/24 00:35:24;;;;;;;3.53;3.23;;;;;;;22.91;44.95;97571.38;5044320;28;20538;-68
2022/08/24 00:37:50;;;;;;;5.20;3.57;;;;;;;22.85;45.12;97565.06;5048868;28;20199;-68
2022/08/24 00:40:20;;;;;;;5.37;3.17;;;;;;;22.82;45.09;97566.31;5049407;28;20189;-69
2022/08/24 00:42:46;;;;;;;4.30;3.40;;;;;;;22.74;45.35;97561.28;5046553;28;20465;-69
2022/08/24 00:45:15;;;;;;;6.00;3.80;;;;;;;22.72;45.66;97558.00;5043956;28;20442;-68
2022/08/24 00:47:54;;;;;;;4.27;3.87;;;;;;;22.66;45.80;97565.06;5050454;28;20429;-68
2022/08/24 00:50:26;;;;;;;6.03;4.20;;;;;;;22.74;45.65;97557.81;5052284;28;20783;-69
2022/08/24 00:52:55;;;;;;;5.50;3.60;;;;;;;22.74;45.57;97571.16;5051395;28;20429;-69
2022/08/24 00:55:42;;;;;;;5.90;4.23;;;;;;;22.71;45.74;97564.38;5020424;28;20443;-69
2022/08/24 00:58:13;;;;;;;3.97;3.63;;;;;;;22.69;45.66;97561.09;5017164;28;20425;-68
2022/08/24 01:00:42;;;;;;;5.03;3.60;;;;;;;22.64;45.90;97563.66;5052497;28;20977;-69
2022/08/24 01:03:08;;;;;;;4.70;3.63;;;;;;;22.59;45.99;97564.31;5043395;28;20457;-69
2022/08/24 01:05:35;;;;;;;7.63;3.40;;;;;;;22.47;46.07;97555.41;5052205;28;20446;-69
2022/08/24 01:08:02;;;;;;;3.77;3.47;;;;;;;22.48;46.27;97563.19;5051486;28;20240;-70
2022/08/24 01:10:30;;;;;;;3.60;3.30;;;;;;;22.40;46.39;97558.09;5034322;28;20932;-69
2022/08/24 01:13:04;;;;;;;5.07;3.83;;;;;;;22.35;46.44;97552.59;5049637;28;20430;-70
2022/08/24 01:15:33;;;;;;;4.93;3.10;;;;;;;22.34;46.30;97553.63;5048642;28;20449;-70
2022/08/24 01:20:51;;;;;;;4.10;3.80;;;;;;;22.24;46.83;97560.28;5038083;28;20422;-69
2022/08/24 01:23:37;;;;;;;6.83;3.97;;;;;;;22.19;47.13;97556.66;5050216;28;20457;-68
2022/08/24 01:26:03;;;;;;;5.20;4.03;;;;;;;22.20;47.01;97566.28;5042370;28;20900;-69
2022/08/24 01:28:29;;;;;;;5.03;4.07;;;;;;;22.13;46.97;97568.19;5030415;28;20419;-68
2022/08/24 01:30:55;;;;;;;4.50;4.00;;;;;;;22.08;47.49;97560.81;5045710;28;20947;-69
2022/08/24 01:33:23;;;;;;;6.03;3.73;;;;;;;22.03;47.26;97568.69;5045312;28;20258;-69
2022/08/24 01:35:49;;;;;;;7.33;3.67;;;;;;;21.92;47.64;97568.34;5050113;28;20226;-69
2022/08/24 01:38:16;;;;;;;5.90;3.80;;;;;;;22.01;47.67;97578.75;5044557;28;20838;-69
2022/08/24 01:40:45;;;;;;;6.20;3.67;;;;;;;21.90;47.60;97578.41;5017226;28;20187;-69
2022/08/24 01:43:11;;;;;;;7.90;4.13;;;;;;;21.85;47.89;97580.91;5045428;28;20468;-69
2022/08/24 01:45:38;;;;;;;4.10;3.70;;;;;;;21.87;47.91;97581.50;5043380;28;20477;-68
2022/08/24 01:48:04;;;;;;;7.63;3.90;;;;;;;21.84;47.93;97579.28;5049680;28;20432;-69
2022/08/24 01:50:30;;;;;;;5.67;4.20;;;;;;;21.86;47.95;97584.41;5051464;28;20182;-69
2022/08/24 01:52:57;;;;;;;5.43;3.87;;;;;;;21.88;48.16;97579.66;5043215;28;20269;-69
2022/08/24 01:55:24;;;;;;;4.10;3.80;;;;;;;21.87;47.98;97586.84;5050202;28;20955;-69
2022/08/24 01:57:49;;;;;;;5.07;4.10;;;;;;;21.85;48.09;97586.25;5049373;28;20421;-70
2022/08/24 02:00:15;;;;;;;5.00;3.83;;;;;;;21.91;47.84;97577.41;5051030;28;20437;-69
2022/08/24 02:02:42;;;;;;;4.50;3.60;;;;;;;21.81;47.83;97579.69;5051298;28;20217;-69
2022/08/24 02:05:10;;;;;;;5.20;3.90;;;;;;;21.65;48.47;97577.56;5041443;28;20499;-70
2022/08/24 02:07:35;;;;;;;4.20;3.80;;;;;;;21.62;48.40;97574.28;5050530;28;20413;-69
2022/08/24 02:10:01;;;;;;;4.10;3.80;;;;;;;21.58;48.68;97580.25;5051161;28;20433;-70
2022/08/24 02:12:26;;;;;;;4.20;3.83;;;;;;;21.56;48.70;97579.63;5028858;28;20171;-70
2022/08/24 02:14:52;;;;;;;5.57;3.80;;;;;;;21.65;48.37;97583.69;5051103;28;20203;-70
2022/08/24 02:17:17;;;;;;;7.80;3.90;;;;;;;21.63;48.51;97583.09;5050107;28;20289;-69
2022/08/24 02:19:43;;;;;;;5.50;3.67;;;;;;;21.61;48.64;97583.31;5051069;28;20186;-70
2022/08/24 02:22:09;;;;;;;4.40;4.00;;;;;;;21.61;48.34;97593.19;5041354;28;20336;-70
2022/08/24 02:24:35;;;;;;;4.33;3.87;;;;;;;21.51;48.70;97593.59;5041663;28;20214;-69
2022/08/24 02:27:01;;;;;;;4.30;3.90;;;;;;;21.59;48.36;97601.38;5048932;28;20488;-70
2022/08/24 02:29:27;;;;;;;4.63;4.13;;;;;;;21.54;48.44;97595.84;5049489;28;20425;-69
2022/08/24 02:31:52;;;;;;;4.83;3.40;;;;;;;21.56;48.37;97596.44;5051051;28;20229;-69
2022/08/24 02:34:18;;;;;;;3.60;3.30;;;;;;;21.57;48.47;97595.41;5049453;28;20727;-69
2022/08/24 02:36:44;;;;;;;5.50;3.80;;;;;;;21.55;48.47;97594.78;5048534;28;20210;-68
2022/08/24 02:39:09;;;;;;;4.30;3.90;;;;;;;21.56;48.67;97590.28;5045885;28;20187;-69
2022/08/24 02:41:36;;;;;;;4.20;3.80;;;;;;;21.59;48.35;97589.88;5049431;28;20555;-70
2022/08/24 02:44:02;;;;;;;4.83;3.60;;;;;;;21.52;48.47;97589.91;5043164;28;20188;-69
2022/08/24 02:46:29;;;;;;;4.70;3.80;;;;;;;21.45;48.62;97595.28;5043117;28;20430;-68
2022/08/24 02:48:58;;;;;;;7.17;3.40;;;;;;;21.44;48.87;97590.13;5049601;28;20433;-70
2022/08/24 02:51:28;;;;;;;7.07;3.63;;;;;;;21.42;48.83;97585.03;5050408;28;20429;-69
2022/08/24 02:53:55;;;;;;;4.53;4.13;;;;;;;21.41;48.87;97585.25;5030076;28;20426;-68
2022/08/24 02:56:21;;;;;;;6.90;3.90;;;;;;;21.41;48.73;97591.38;5040913;28;20449;-67
2022/08/24 02:58:47;;;;;;;5.30;4.40;;;;;;;21.38;48.72;97588.34;5053512;28;20421;-68
2022/08/24 03:01:13;;;;;;;6.33;4.53;;;;;;;21.35;48.91;97583.44;5049272;28;20649;-68
2022/08/24 03:03:39;;;;;;;4.63;4.23;;;;;;;21.28;49.28;97586.94;5022272;28;20516;-70
2022/08/24 03:06:06;;;;;;;4.20;3.90;;;;;;;21.26;49.23;97586.34;5036495;28;20596;-69
2022/08/24 03:08:31;;;;;;;4.13;3.77;;;;;;;21.28;48.96;97589.63;5053317;28;20459;-68
2022/08/24 03:10:59;;;;;;;7.63;3.90;;;;;;;21.26;49.33;97585.50;5044086;28;20520;-68
2022/08/24 03:13:26;;;;;;;5.00;4.10;;;;;;;21.23;49.25;97581.44;5046407;28;20280;-69
2022/08/24 03:15:52;;;;;;;4.47;4.07;;;;;;;21.15;49.29;97579.00;5053418;28;20430;-69
2022/08/24 03:18:18;;;;;;;6.00;4.37;;;;;;;21.12;49.40;97574.09;5053975;28;20479;-68
2022/08/24 03:20:43;;;;;;;4.40;4.00;;;;;;;21.08;49.64;97579.03;5037936;28;20920;-70
2022/08/24 03:23:09;;;;;;;4.80;4.30;;;;;;;20.99;49.22;97581.13;5043973;28;20257;-68
2022/08/24 03:25:34;;;;;;;4.33;3.93;;;;;;;20.96;49.88;97573.53;5034555;28;20282;-69
2022/08/24 03:28:01;;;;;;;6.93;4.20;;;;;;;20.98;49.93;97579.47;5025430;28;20211;-69
2022/08/24 03:30:26;;;;;;;5.93;4.40;;;;;;;21.03;49.94;97581.50;5044050;28;20209;-69
2022/08/24 03:32:52;;;;;;;6.23;4.83;;;;;;;21.02;49.80;97585.19;5054261;28;20445;-70
2022/08/24 03:35:20;;;;;;;4.47;3.90;;;;;;;21.05;49.93;97583.94;5045792;28;20207;-69
2022/08/24 03:37:48;;;;;;;6.00;4.47;;;;;;;21.02;49.87;97583.38;5033097;28;20207;-69
2022/08/24 03:40:13;;;;;;;4.60;4.20;;;;;;;21.00;49.78;97585.41;5051107;28;20433;-68
2022/08/24 03:42:39;;;;;;;7.33;4.40;;;;;;;21.04;49.83;97585.00;5035550;28;20461;-68
2022/08/24 03:45:05;;;;;;;5.90;3.90;;;;;;;20.96;49.85;97578.88;5043973;28;20286;-69
2022/08/24 03:47:30;;;;;;;5.57;4.50;;;;;;;20.95;49.74;97579.88;5036649;28;20187;-69
2022/08/24 03:49:56;;;;;;;5.73;4.50;;;;;;;20.92;50.17;97574.97;5048955;28;20471;-68
2022/08/24 03:52:22;;;;;;;9.67;4.27;;;;;;;20.80;50.11;97581.97;5052820;28;20189;-68
2022/08/24 03:54:47;;;;;;;5.33;4.40;;;;;;;20.74;50.80;97580.94;5053615;28;20217;-69
2022/08/24 03:57:13;;;;;;;5.90;4.70;;;;;;;20.61;50.49;97572.97;5036663;28;20189;-69
2022/08/24 03:59:39;;;;;;;5.30;4.80;;;;;;;20.64;51.10;97577.88;5036272;28;20183;-68
2022/08/24 04:02:04;;;;;;;5.20;4.50;;;;;;;20.70;50.77;97580.53;5016343;28;20217;-68
2022/08/24 04:04:30;;;;;;;5.33;4.50;;;;;;;20.72;50.87;97589.13;5048419;28;20207;-69
2022/08/24 04:06:56;;;;;;;5.97;4.20;;;;;;;20.69;50.84;97586.88;5040743;28;20710;-69
2022/08/24 04:09:22;;;;;;;4.83;4.40;;;;;;;20.74;50.50;97582.78;5042344;28;20188;-68
2022/08/24 04:11:47;;;;;;;6.03;4.83;;;;;;;20.71;50.95;97584.03;5053247;28;20501;-69
2022/08/24 04:14:15;;;;;;;9.33;4.20;;;;;;;20.72;50.50;97586.47;5052530;28;20241;-68
2022/08/24 04:16:40;;;;;;;9.13;4.60;;;;;;;20.66;50.85;97582.00;5044887;28;20187;-69
2022/08/24 04:19:06;;;;;;;7.27;4.00;;;;;;;20.66;50.84;97592.66;5037277;28;20421;-69
2022/08/24 04:21:33;;;;;;;7.73;4.93;;;;;;;20.62;51.05;97588.75;5044819;28;20673;-69
2022/08/24 04:23:59;;;;;;;5.13;4.53;;;;;;;20.55;51.23;97586.09;5051447;28;20217;-69
2022/08/24 04:26:27;;;;;;;7.90;4.37;;;;;;;20.57;51.19;97585.88;5047893;28;20449;-67
2022/08/24 04:28:53;;;;;;;8.90;4.97;;;;;;;20.51;51.42;97592.84;5042983;28;20324;-69
2022/08/24 04:31:18;;;;;;;5.87;5.00;;;;;;;20.49;51.46;97586.13;5048034;28;20429;-69
2022/08/24 04:33:46;;;;;;;14.70;5.07;;;;;;;20.47;51.58;97598.81;5040327;28;20417;-69
2022/08/24 04:36:12;;;;;;;5.13;4.73;;;;;;;20.49;51.62;97602.88;5039754;28;20216;-69
2022/08/24 04:38:37;;;;;;;6.80;4.50;;;;;;;20.50;51.83;97593.88;5039751;28;20425;-70
2022/08/24 04:41:05;;;;;;;6.20;4.90;;;;;;;20.47;51.97;97601.47;5051357;28;20939;-68
2022/08/24 04:43:30;;;;;;;8.83;4.97;;;;;;;20.46;51.91;97594.50;5050686;28;20210;-68
2022/08/24 04:45:56;;;;;;;6.97;4.73;;;;;;;20.43;51.59;97601.06;5042175;28;20441;-69
2022/08/24 04:48:22;;;;;;;6.10;4.73;;;;;;;20.42;51.89;97594.91;5051262;28;20190;-68
2022/08/24 04:50:48;;;;;;;5.63;4.53;;;;;;;20.46;52.01;97605.16;5051240;28;20674;-69
2022/08/24 04:53:14;;;;;;;5.63;4.80;;;;;;;20.45;51.84;97607.00;5028729;28;20436;-69
2022/08/24 04:55:45;;;;;;;8.00;5.30;;;;;;;20.41;52.10;97601.25;5056694;28;20207;-69
2022/08/24 04:58:12;;;;;;;4.73;4.40;;;;;;;20.45;52.08;97606.19;5043632;28;20430;-68
2022/08/24 05:00:38;;;;;;;6.43;4.60;;;;;;;20.50;52.09;97612.50;5046122;28;20786;-69
2022/08/24 05:03:04;;;;;;;8.43;4.87;;;;;;;20.56;51.81;97616.19;5033148;28;20472;-70
2022/08/24 05:05:29;;;;;;;7.40;5.07;;;;;;;20.52;52.04;97617.66;5020673;28;20209;-69
2022/08/24 05:07:55;;;;;;;11.10;5.33;;;;;;;20.60;52.27;97620.09;5050046;28;20240;-70
2022/08/24 05:10:21;;;;;;;5.20;4.73;;;;;;;20.63;52.16;97625.00;5051415;28;20187;-68
2022/08/24 05:12:47;;;;;;;6.47;5.00;;;;;;;20.69;51.89;97618.84;5051901;28;20662;-69
2022/08/24 05:15:12;;;;;;;6.93;4.53;;;;;;;20.72;52.08;97620.28;5017082;28;20448;-68
2022/08/24 05:17:40;;;;;;;9.13;5.27;;;;;;;20.79;52.28;97621.13;5049706;28;20271;-69
2022/08/24 05:20:08;;;;;;;11.80;6.07;;;;;;;20.84;51.79;97620.50;5051156;28;20627;-69
2022/08/24 05:22:34;;;;;;;9.77;5.07;;;;;;;20.87;52.13;97620.88;5040713;28;21161;-69
2022/08/24 05:24:59;;;;;;;5.47;4.90;;;;;;;20.90;51.90;97622.34;5051246;28;20445;-68
2022/08/24 05:27:25;;;;;;;8.73;5.63;;;;;;;20.83;52.04;97618.84;5050449;28;20944;-68
2022/08/24 05:29:53;;;;;;;9.00;5.97;;;;;;;20.97;51.51;97620.47;5051085;28;20685;-70
2022/08/24 05:32:19;;;;;;;6.53;5.70;;;;;;;21.05;51.42;97622.06;5051464;28;20214;-69
2022/08/24 05:34:44;;;;;;;9.70;5.50;;;;;;;21.04;51.56;97625.78;5039719;28;20551;-67
2022/08/24 05:37:10;;;;;;;6.80;5.43;;;;;;;21.11;51.84;97625.75;5047803;28;20206;-69
2022/08/24 05:39:35;;;;;;;7.27;5.60;;;;;;;21.21;51.25;97617.31;5049911;28;20643;-69
2022/08/24 05:42:01;;;;;;;8.67;5.43;;;;;;;21.25;50.82;97622.03;5052584;28;20264;-69
2022/08/24 05:44:26;;;;;;;7.33;5.63;;;;;;;21.33;50.41;97615.63;5050637;28;20233;-68
2022/08/24 05:46:53;;;;;;;8.20;5.60;;;;;;;21.42;50.49;97627.69;5045311;28;20194;-69
2022/08/24 05:49:18;;;;;;;10.40;5.40;;;;;;;21.53;50.51;97628.03;5051228;28;20578;-68
2022/08/24 05:51:43;;;;;;;7.73;4.77;;;;;;;21.57;50.33;97626.59;5052128;28;20537;-70
2022/08/24 05:54:12;;;;;;;14.13;5.67;;;;;;;21.63;50.62;97629.25;5050578;28;20191;-69
2022/08/24 05:56:37;;;;;;;7.80;5.27;;;;;;;21.75;50.37;97626.72;5050279;28;20187;-69
2022/08/24 05:59:03;;;;;;;14.13;5.37;;;;;;;21.83;50.57;97633.66;5051108;28;20430;-70
2022/08/24 06:01:29;;;;;;;8.77;4.87;;;;;;;21.98;50.29;97633.38;5035528;28;20194;-69
2022/08/24 06:03:55;;;;;;;9.37;5.43;;;;;;;22.13;50.18;97625.06;5050768;28;20207;-69
2022/08/24 06:06:22;;;;;;;7.50;4.77;;;;;;;22.32;49.84;97638.44;5048832;28;20202;-70
2022/08/24 06:08:50;;;;;;;6.37;5.00;;;;;;;22.51;49.61;97644.69;5025407;28;20431;-70
2022/08/24 06:11:23;;;;;;;5.80;4.73;;;;;;;22.66;48.83;97637.16;5047216;28;20434;-69
2022/08/24 06:13:51;;;;;;;6.10;5.10;;;;;;;22.83;48.22;97637.41;5050996;28;20453;-70
2022/08/24 06:16:16;;;;;;;7.77;4.50;;;;;;;22.97;47.91;97637.28;5050494;28;20455;-69
2022/08/24 06:18:42;;;;;;;8.90;4.90;;;;;;;23.10;47.00;97631.78;5050544;28;20520;-69
2022/08/24 06:21:10;;;;;;;6.53;4.57;;;;;;;23.28;46.61;97638.22;5042547;28;20626;-70
2022/08/24 06:23:36;;;;;;;6.30;4.53;;;;;;;23.45;46.77;97623.16;5050827;28;20580;-71
2022/08/24 06:28:47;;;;;;;5.53;4.60;;;;;;;23.74;46.62;97627.97;5038211;28;20452;-70
2022/08/24 06:31:12;;;;;;;10.43;5.40;;;;;;;23.87;46.25;97627.78;5049461;28;20433;-69
2022/08/24 06:33:38;;;;;;;11.07;4.33;;;;;;;24.01;46.14;97633.78;5041253;28;20179;-69
2022/08/24 06:36:04;;;;;;;8.77;4.60;;;;;;;24.12;45.61;97628.69;5050587;28;20564;-70
2022/08/24 06:38:29;;;;;;;9.47;4.20;;;;;;;24.22;45.24;97626.25;5045232;28;20195;-69
2022/08/24 06:40:55;;;;;;;5.67;4.13;;;;;;;24.37;45.36;97629.31;5046151;28;20194;-70
2022/08/24 06:43:23;;;;;;;4.60;3.90;;;;;;;24.52;44.90;97631.50;5054152;28;20599;-69
2022/08/24 06:45:49;;;;;;;5.40;3.50;;;;;;;24.69;44.32;97626.34;5048136;28;20866;-69
2022/08/24 06:48:15;;;;;;;4.60;3.60;;;;;;;24.85;44.07;97637.38;5053688;28;20939;-69
2022/08/24 06:50:40;;;;;;;5.83;4.10;;;;;;;25.04;43.42;97637.25;5053493;28;20429;-69
2022/08/24 06:53:06;;;;;;;6.73;3.57;;;;;;;25.21;42.72;97646.19;5042590;28;20180;-70
2022/08/24 06:55:32;;;;;;;6.53;3.80;;;;;;;25.37;41.78;97635.75;5054627;28;20207;-69
2022/08/24 06:57:57;;;;;;;8.00;3.53;;;;;;;25.53;41.26;97634.22;5046463;28;20191;-69
2022/08/24 07:00:23;;;;;;;4.27;3.20;;;;;;;25.66;40.05;97638.50;5053604;28;20722;-69
2022/08/24 07:02:49;;;;;;;9.33;3.40;;;;;;;25.84;40.28;97645.56;5045903;28;20214;-69
2022/08/24 07:05:15;;;;;;;11.60;3.47;;;;;;;25.95;38.26;97646.56;5052196;28;20445;-69
2022/08/24 07:07:40;;;;;;;3.70;3.40;;;;;;;26.11;38.66;97648.47;5052387;28;20266;-70
2022/08/24 07:10:10;;;;;;;7.00;3.30;;;;;;;26.27;38.95;97643.34;5049475;28;20354;-69
2022/08/24 07:12:36;;;;;;;12.80;3.70;;;;;;;26.43;37.80;97653.31;5054368;28;20277;-70
2022/08/24 07:15:03;;;;;;;4.47;3.07;;;;;;;26.61;38.03;97654.09;5054000;28;21036;-69
2022/08/24 07:17:28;;;;;;;8.77;3.60;;;;;;;26.69;37.00;97659.06;5049856;28;20194;-69
2022/08/24 07:19:54;;;;;;;3.50;3.20;;;;;;;26.80;37.07;97658.19;5039095;28;20426;-70
2022/08/24 07:22:19;;;;;;;10.47;3.77;;;;;;;26.87;35.91;97652.66;5037853;28;20619;-71
2022/08/24 07:24:45;;;;;;;5.10;3.40;;;;;;;26.90;35.82;97651.31;5036589;28;20219;-68
2022/08/24 07:27:11;;;;;;;7.10;3.60;;;;;;;26.91;35.33;97661.03;5049182;28;20547;-69
2022/08/24 07:29:38;;;;;;;7.20;2.70;;;;;;;27.01;35.47;97653.09;5053996;28;20199;-69
2022/08/24 07:32:04;;;;;;;7.40;3.40;;;;;;;27.12;35.23;97649.47;5053773;28;20434;-70
2022/08/24 07:34:29;;;;;;;4.37;3.33;;;;;;;27.28;35.35;97652.38;5053787;28;20468;-70
2022/08/24 07:36:55;;;;;;;3.67;2.80;;;;;;;27.46;35.03;97658.53;5052937;28;20437;-70
2022/08/24 07:39:21;;;;;;;5.20;2.73;;;;;;;27.65;34.69;97659.81;5040665;28;20769;-70
2022/08/24 07:41:46;;;;;;;3.80;2.90;;;;;;;27.86;34.41;97649.25;5053725;28;20245;-70
2022/08/24 07:44:12;;;;;;;4.67;2.90;;;;;;;28.04;34.40;97654.31;5053484;28;20195;-70
2022/08/24 07:46:39;;;;;;;5.63;2.90;;;;;;;28.24;34.04;97652.88;5046146;28;20183;-69
2022/08/24 07:49:06;;;;;;;11.63;3.07;;;;;;;28.43;34.11;97663.28;5052162;28;20265;-70
2022/08/24 07:51:31;;;;;;;4.43;3.10;;;;;;;28.59;33.84;97662.34;5053629;28;21005;-70
2022/08/24 07:53:57;;;;;;;9.50;3.50;;;;;;;28.77;33.34;97654.91;5051841;28;20509;-69
2022/08/24 07:56:22;;;;;;;12.33;3.30;;;;;;;28.98;32.78;97668.56;5051528;28;20245;-69
2022/08/24 07:58:48;;;;;;;15.90;3.20;;;;;;;29.14;33.26;97662.16;5053805;28;20553;-69
2022/08/24 08:01:14;;;;;;;10.90;2.80;;;;;;;29.40;33.12;97665.00;5035382;28;20211;-69
2022/08/24 08:03:39;;;;;;;8.07;2.77;;;;;;;29.62;32.97;97664.81;5052819;28;20226;-68
2022/08/24 08:06:06;;;;;;;5.97;2.80;;;;;;;29.82;32.47;97663.22;5052136;28;20592;-69
2022/08/24 08:08:34;;;;;;;3.90;2.77;;;;;;;29.99;31.45;97660.34;5052055;28;20262;-68
2022/08/24 08:11:01;;;;;;;11.63;3.40;;;;;;;30.11;31.56;97660.06;5050237;28;20441;-70
2022/08/24 08:13:27;;;;;;;5.83;2.90;;;;;;;30.26;31.39;97664.66;5044807;28;20413;-71
2022/08/24 08:15:54;;;;;;;5.97;3.30;;;;;;;30.36;31.94;97671.97;5051628;28;20981;-70
2022/08/24 08:18:19;;;;;;;9.60;2.70;;;;;;;30.42;31.39;97665.50;5052351;28;20453;-69
2022/08/24 08:20:46;;;;;;;9.03;3.17;;;;;;;30.50;31.82;97667.66;5047489;28;20926;-70
2022/08/24 08:26:00;;;;;;;7.77;3.17;;;;;;;30.72;31.36;97667.41;5045866;28;20797;-70
2022/08/24 08:28:31;;;;;;;5.37;3.63;;;;;;;30.82;30.96;97669.25;5051326;28;20429;-69
2022/08/24 08:31:00;;;;;;;5.53;2.97;;;;;;;30.87;30.33;97676.56;5044521;28;20938;-68
2022/08/24 08:33:25;;;;;;;9.00;3.27;;;;;;;30.96;30.36;97669.50;5052228;28;20496;-69
2022/08/24 08:36:13;;;;;;;6.57;2.93;;;;;;;31.05;30.05;97670.56;5051340;28;20536;-69
2022/08/24 08:38:41;;;;;;;6.53;3.60;;;;;;;31.25;29.39;97677.03;5046640;28;20191;-70
2022/08/24 08:41:36;;;;;;;4.37;2.70;;;;;;;31.42;28.21;97671.28;5047545;28;20437;-70
2022/08/24 08:44:05;;;;;;;3.07;2.60;;;;;;;31.61;27.51;97657.94;5052497;28;20465;-70
2022/08/24 08:46:39;;;;;;;4.07;2.30;;;;;;;31.80;26.86;97657.31;5038734;28;20423;-71
2022/08/24 08:49:17;;;;;;;2.73;2.03;;;;;;;31.99;26.39;97662.88;5027808;28;20775;-70
2022/08/24 08:51:59;;;;;;;3.73;2.30;;;;;;;32.15;25.23;97666.28;5052472;28;20436;-70
2022/08/24 08:54:29;;;;;;;3.03;1.93;;;;;;;32.27;25.17;97661.34;5052312;28;20437;-69
2022/08/24 08:57:06;;;;;;;4.10;1.87;;;;;;;32.45;23.77;97656.31;5051509;28;20428;-70
2022/08/24 08:59:50;;;;;;;2.43;1.93;;;;;;;32.39;23.95;97652.84;5051050;28;20425;-71
2022/08/24 09:02:37;;;;;;;2.80;1.60;;;;;;;32.68;23.77;97651.22;5052025;28;20472;-70
2022/08/24 09:05:25;;;;;;;3.07;1.80;;;;;;;32.83;23.37;97653.03;5044936;28;20783;-70
2022/08/24 09:08:35;;;;;;;2.30;2.10;;;;;;;32.98;23.18;97652.84;5051457;28;20421;-69
2022/08/24 09:11:19;;;;;;;2.30;1.50;;;;;;;33.00;23.52;97655.28;5007438;28;20529;-69
2022/08/24 09:14:07;;;;;;;2.87;1.60;;;;;;;33.17;23.07;97662.97;5039471;28;20435;-70
2022/08/24 09:16:51;;;;;;;2.90;2.00;;;;;;;33.31;22.58;97647.59;5050031;28;20438;-71
2022/08/24 09:19:51;;;;;;;1.53;1.43;;;;;;;33.60;23.14;97656.75;5049906;28;20425;-70
2022/08/24 09:22:19;;;;;;;3.10;1.40;;;;;;;33.86;22.35;97649.03;5041602;28;20981;-69
2022/08/24 09:24:53;;;;;;;4.07;1.70;;;;;;;34.08;22.32;97647.69;5051806;28;20472;-70
2022/08/24 09:27:41;;;;;;;2.13;1.30;;;;;;;34.18;22.58;97647.50;5050772;28;20428;-68
2022/08/24 09:30:13;;;;;;;7.40;1.60;;;;;;;34.25;21.76;97652.56;5033699;28;20434;-72
2022/08/24 09:32:56;;;;;;;2.23;1.53;;;;;;;34.24;21.72;97650.97;5043535;28;20904;-69
2022/08/24 09:35:34;;;;;;;1.50;1.40;;;;;;;34.18;21.71;97647.50;5050167;28;20959;-70
2022/08/24 09:38:07;;;;;;;4.13;1.57;;;;;;;34.11;21.89;97647.88;5046370;28;20766;-68
2022/08/24 09:40:35;;;;;;;3.60;1.63;;;;;;;34.12;22.42;97645.97;5044741;28;20430;-69
2022/08/24 09:43:24;;;;;;;2.17;1.60;;;;;;;34.20;22.33;97645.31;5050258;28;20476;-69
2022/08/24 09:46:20;;;;;;;3.00;1.90;;;;;;;34.09;22.70;97647.38;5044775;28;20936;-69
2022/08/24 09:49:16;;;;;;;2.37;1.73;;;;;;;34.19;22.71;97643.69;5050320;28;20848;-69
2022/08/24 09:51:41;;;;;;;3.93;1.53;;;;;;;34.21;22.34;97644.22;5044878;28;20430;-70
2022/08/24 09:54:22;;;;;;;3.50;1.60;;;;;;;34.32;22.44;97641.31;5040197;28;20441;-70
2022/08/24 09:56:59;;;;;;;4.80;1.60;;;;;;;34.40;22.62;97649.63;5038486;28;20187;-70
2022/08/24 09:59:43;;;;;;;6.70;1.53;;;;;;;34.37;22.02;97642.03;5051212;28;20457;-68
2022/08/24 10:02:47;;;;;;;5.57;2.13;;;;;;;34.30;21.84;97644.31;5050765;28;22309;-70
2022/08/24 10:05:27;;;;;;;1.90;1.70;;;;;;;34.32;22.48;97644.81;5046722;28;20968;-69
2022/08/24 10:07:58;;;;;;;7.63;1.60;;;;;;;34.43;21.98;97646.28;5050494;28;20948;-70
2022/08/24 10:10:32;;;;;;;3.60;1.80;;;;;;;34.48;21.70;97639.16;5046438;28;20633;-69
2022/08/24 10:13:24;;;;;;;1.60;1.50;;;;;;;34.45;22.31;97646.81;5051130;28;20417;-69
2022/08/24 10:16:07;;;;;;;2.63;1.90;;;;;;;34.41;21.43;97642.28;5049646;28;20823;-69
2022/08/24 10:18:54;;;;;;;1.80;1.70;;;;;;;34.63;22.05;97635.34;5045346;28;20796;-70
2022/08/24 10:21:48;;;;;;;4.33;1.80;;;;;;;34.70;21.45;97638.50;5041387;28;20766;-69
2022/08/24 10:24:24;;;;;;;1.83;1.40;;;;;;;34.68;21.40;97635.28;5047865;28;20480;-69
2022/08/24 10:27:08;;;;;;;1.80;1.70;;;;;;;34.73;21.24;97635.16;5040748;28;20432;-69
2022/08/24 10:30:11;;;;;;;3.93;1.37;;;;;;;34.67;21.24;97631.72;5051060;28;20428;-70
2022/08/24 10:32:46;;;;;;;2.57;1.50;;;;;;;34.71;21.92;97626.53;5050610;28;20420;-69
2022/08/24 10:35:14;;;;;;;3.67;1.40;;;;;;;34.72;21.08;97623.50;5049451;28;20456;-70
2022/08/24 10:37:49;;;;;;;5.43;1.40;;;;;;;34.69;20.84;97620.56;5047078;28;20433;-70
2022/08/24 10:40:18;;;;;;;2.90;1.47;;;;;;;34.40;21.65;97624.31;5044122;28;20455;-69
2022/08/24 10:46:10;;;;;;;4.70;1.60;;;;;;;34.30;22.29;97617.94;5043223;28;20468;-69
2022/08/24 10:49:09;;;;;;;3.37;1.80;;;;;;;34.43;21.84;97612.88;5036563;28;20421;-70
2022/08/24 10:52:17;;;;;;;6.70;1.90;;;;;;;34.40;21.96;97610.72;5047546;28;20791;-70
2022/08/24 10:54:44;;;;;;;2.23;1.50;;;;;;;34.43;22.00;97613.66;5046629;28;20823;-71
2022/08/24 10:57:36;;;;;;;2.70;1.80;;;;;;;34.53;22.08;97620.03;5041476;28;20469;-69
2022/08/24 11:00:15;;;;;;;2.90;1.77;;;;;;;34.54;22.15;97616.19;5050604;28;20417;-69
2022/08/24 11:02:42;;;;;;;3.33;1.63;;;;;;;34.59;22.47;97614.19;5050230;28;20506;-69
2022/08/24 11:05:12;;;;;;;2.63;1.83;;;;;;;34.69;22.05;97606.97;5048874;28;20449;-70
2022/08/24 11:07:56;;;;;;;1.80;1.70;;;;;;;34.62;22.00;97610.06;5042852;28;20529;-71
2022/08/24 11:10:25;;;;;;;1.70;1.50;;;;;;;34.72;22.32;97612.59;5044837;28;20936;-71
2022/08/24 11:12:50;;;;;;;3.50;1.60;;;;;;;34.80;22.42;97610.28;5050537;28;20428;-70
2022/08/24 11:15:16;;;;;;;2.97;1.60;;;;;;;34.90;22.12;97610.91;5050359;28;20453;-71
2022/08/24 11:17:56;;;;;;;3.80;1.63;;;;;;;35.02;22.03;97602.25;5049699;28;20187;-70
2022/08/24 11:20:35;;;;;;;1.77;1.67;;;;;;;35.06;21.60;97599.75;5046947;28;20191;-69
2022/08/24 11:23:17;;;;;;;2.10;1.70;;;;;;;35.23;21.32;97601.84;5046507;28;20522;-69
2022/08/24 11:26:11;;;;;;;1.80;1.70;;;;;;;35.34;21.49;97600.50;5049369;28;20445;-69
2022/08/24 11:28:38;;;;;;;5.20;1.80;;;;;;;35.50;21.70;97598.25;5050732;28;20797;-70
2022/08/24 11:31:03;;;;;;;4.00;1.60;;;;;;;35.64;21.00;97584.63;5052845;28;20444;-70
2022/08/24 11:33:44;;;;;;;3.47;1.67;;;;;;;35.88;21.10;97586.25;5019620;28;20421;-71
2022/08/24 11:36:19;;;;;;;3.50;1.23;;;;;;;35.87;20.57;97590.09;5052342;28;20214;-70
2022/08/24 11:38:46;;;;;;;3.10;1.27;;;;;;;35.92;20.89;97587.22;5047314;28;20431;-70
2022/08/24 11:41:22;;;;;;;4.30;2.23;;;;;;;35.88;20.65;97586.25;5048399;28;20811;-72
2022/08/24 11:44:02;;;;;;;2.93;1.37;;;;;;;36.02;21.12;97575.28;5046748;28;20459;-68
2022/08/24 11:46:33;;;;;;;1.70;1.60;;;;;;;36.19;20.94;97571.88;5044810;28;20448;-68
2022/08/24 11:49:01;;;;;;;2.63;1.40;;;;;;;36.28;20.70;97580.91;5053561;28;20428;-69
2022/08/24 11:51:45;;;;;;;1.70;1.47;;;;;;;36.40;20.55;97574.06;5053727;28;20455;-69
2022/08/24 11:54:49;;;;;;;1.40;1.30;;;;;;;36.37;20.38;97571.97;5052197;28;20759;-69
2022/08/24 11:57:44;;;;;;;3.57;1.30;;;;;;;36.46;20.03;97570.09;4997346;28;20478;-70
2022/08/24 12:00:15;;;;;;;1.40;1.27;;;;;;;36.68;20.19;97562.97;5028582;28;20429;-71